createdAt,value
2018-07-02T00:00:43.124Z,17.60
2018-07-02T00:03:11.942Z,17.62
2018-07-02T00:05:51.102Z,17.72
2018-07-02T00:08:19.202Z,17.80
2018-07-02T00:10:47.212Z,17.79
2018-07-02T00:13:15.250Z,17.91
2018-07-02T00:15:43.227Z,18.10
2018-07-02T00:18:11.369Z,17.97
2018-07-02T00:20:39.556Z,17.86
2018-07-02T00:23:07.666Z,17.71
2018-07-02T00:25:35.626Z,17.69
2018-07-02T00:28:03.775Z,17.65
2018-07-02T00:30:31.786Z,17.54
2018-07-02T00:32:59.835Z,17.55
2018-07-02T00:35:27.962Z,17.43
2018-07-02T00:37:55.915Z,17.33
2018-07-02T00:40:24.000Z,17.06
2018-07-02T00:42:52.017Z,17.12
2018-07-02T00:45:20.051Z,17.25
2018-07-02T00:47:48.080Z,17.35
2018-07-02T00:50:16.074Z,17.28
2018-07-02T00:52:44.126Z,17.07
2018-07-02T00:55:12.118Z,16.95
2018-07-02T00:57:40.114Z,17.13
2018-07-02T01:00:15.667Z,17.23
2018-07-02T01:02:44.042Z,17.24
2018-07-02T01:05:12.846Z,17.23
2018-07-02T01:07:41.529Z,17.27
2018-07-02T01:10:09.975Z,17.28
2018-07-02T01:12:37.978Z,17.32
2018-07-02T01:15:06.866Z,17.19
2018-07-02T01:17:35.933Z,17.17
2018-07-02T01:20:04.058Z,17.19
2018-07-02T01:22:32.089Z,17.17
2018-07-02T01:25:00.238Z,17.16
2018-07-02T01:27:32.658Z,17.17
2018-07-02T01:30:00.744Z,16.92
2018-07-02T01:32:28.773Z,16.85
2018-07-02T01:34:56.787Z,16.93
2018-07-02T01:37:24.894Z,17.04
2018-07-02T01:39:52.905Z,17.12
2018-07-02T01:42:21.042Z,17.14
2018-07-02T01:44:48.991Z,17.25
2018-07-02T01:47:17.003Z,17.47
2018-07-02T01:49:45.051Z,17.80
2018-07-02T01:52:13.093Z,17.88
2018-07-02T01:54:41.108Z,17.96
2018-07-02T01:57:09.234Z,17.89
2018-07-02T01:59:37.242Z,17.79
2018-07-02T02:02:05.349Z,17.72
2018-07-02T02:04:33.786Z,17.65
2018-07-02T02:07:02.493Z,17.71
2018-07-02T02:09:30.462Z,17.93
2018-07-02T02:11:58.463Z,18.00
2018-07-02T02:14:26.495Z,18.13
2018-07-02T02:16:54.505Z,18.25
2018-07-02T02:19:22.607Z,18.50
2018-07-02T02:21:50.595Z,18.57
2018-07-02T02:24:18.711Z,18.65
2018-07-02T02:26:46.764Z,18.83
2018-07-02T02:29:14.858Z,19.07
2018-07-02T02:31:42.916Z,19.10
2018-07-02T02:34:11.028Z,19.24
2018-07-02T02:36:39.093Z,19.34
2018-07-02T02:39:08.269Z,19.35
2018-07-02T02:41:36.401Z,19.28
2018-07-02T02:44:04.846Z,19.46
2018-07-02T02:46:32.922Z,19.50
2018-07-02T02:49:00.955Z,19.50
2018-07-02T02:51:29.313Z,19.49
2018-07-02T02:53:57.411Z,19.53
2018-07-02T02:56:25.470Z,19.63
2018-07-02T02:58:53.618Z,19.11
2018-07-02T03:01:21.661Z,18.55
2018-07-02T03:03:49.735Z,18.07
2018-07-02T03:06:17.708Z,17.89
2018-07-02T03:08:46.320Z,17.77
2018-07-02T03:11:14.314Z,17.76
2018-07-02T03:13:42.374Z,17.86
2018-07-02T03:16:10.522Z,18.10
2018-07-02T03:18:38.617Z,18.02
2018-07-02T03:21:06.726Z,17.85
2018-07-02T03:23:34.802Z,17.81
2018-07-02T03:26:02.823Z,17.86
2018-07-02T03:28:30.845Z,18.06
2018-07-02T03:30:58.886Z,18.10
2018-07-02T03:33:26.884Z,18.28
2018-07-02T03:35:55.027Z,18.33
2018-07-02T03:38:23.114Z,18.36
2018-07-02T03:40:51.107Z,18.36
2018-07-02T03:43:19.089Z,18.33
2018-07-02T03:45:47.201Z,18.30
2018-07-02T03:48:15.218Z,18.29
2018-07-02T03:50:43.218Z,18.31
2018-07-02T03:53:11.491Z,18.37
2018-07-02T03:55:39.625Z,18.36
2018-07-02T03:58:07.620Z,18.43
2018-07-02T04:00:35.655Z,18.51
2018-07-02T04:03:03.665Z,18.46
2018-07-02T04:05:31.769Z,18.55
2018-07-02T04:07:59.988Z,18.59
2018-07-02T04:10:28.061Z,18.64
2018-07-02T04:12:56.662Z,18.64
2018-07-02T04:15:24.687Z,18.69
2018-07-02T04:17:52.745Z,18.73
2018-07-02T04:20:20.789Z,18.78
2018-07-02T04:22:48.796Z,18.78
2018-07-02T04:25:16.938Z,18.72
2018-07-02T04:27:45.124Z,18.72
2018-07-02T04:30:13.169Z,18.70
2018-07-02T04:32:41.298Z,18.70
2018-07-02T04:35:09.371Z,18.67
2018-07-02T04:37:37.592Z,18.61
2018-07-02T04:40:05.714Z,18.56
2018-07-02T04:42:33.929Z,18.57
2018-07-02T04:45:02.482Z,18.70
2018-07-02T04:47:30.422Z,18.78
2018-07-02T04:49:58.503Z,18.96
2018-07-02T04:52:26.590Z,19.05
2018-07-02T04:54:54.749Z,19.10
2018-07-02T04:57:22.801Z,19.18
2018-07-02T04:59:50.921Z,19.12
2018-07-02T05:02:19.104Z,19.15
2018-07-02T05:04:47.137Z,19.22
2018-07-02T05:07:15.175Z,19.39
2018-07-02T05:09:43.484Z,19.53
2018-07-02T05:12:11.675Z,19.64
2018-07-02T05:14:40.534Z,19.67
2018-07-02T05:17:08.628Z,19.87
2018-07-02T05:19:36.694Z,19.91
2018-07-02T05:22:05.608Z,19.99
2018-07-02T05:24:33.694Z,20.06
2018-07-02T05:27:02.749Z,20.07
2018-07-02T05:29:31.955Z,20.17
2018-07-02T05:32:00.350Z,20.35
2018-07-02T05:34:28.460Z,20.35
2018-07-02T05:36:56.582Z,20.45
2018-07-02T05:39:24.984Z,20.53
2018-07-02T05:41:53.050Z,20.67
2018-07-02T05:44:20.987Z,20.73
2018-07-02T05:46:49.338Z,20.81
2018-07-02T05:49:17.813Z,20.87
2018-07-02T05:57:32.791Z,21.17
2018-07-02T06:00:01.127Z,21.16
2018-07-02T06:02:29.140Z,21.26
2018-07-02T06:04:57.148Z,21.43
2018-07-02T06:07:25.228Z,21.57
2018-07-02T06:09:53.263Z,21.65
2018-07-02T06:12:21.414Z,21.75
2018-07-02T06:14:50.212Z,21.82
2018-07-02T06:17:18.012Z,21.96
2018-07-02T06:19:46.259Z,22.00
2018-07-02T06:22:14.288Z,22.03
2018-07-02T06:24:42.242Z,22.06
2018-07-02T06:27:10.302Z,22.09
2018-07-02T06:29:38.347Z,22.10
2018-07-02T06:32:06.964Z,22.25
2018-07-02T06:34:35.169Z,22.25
2018-07-02T06:37:03.253Z,22.43
2018-07-02T06:39:31.254Z,22.54
2018-07-02T06:41:59.827Z,22.62
2018-07-02T06:44:28.024Z,22.76
2018-07-02T06:46:56.406Z,22.99
2018-07-02T06:49:24.515Z,23.08
2018-07-02T06:51:52.787Z,23.18
2018-07-02T06:54:22.232Z,23.31
2018-07-02T06:56:51.005Z,23.41
2018-07-02T06:59:19.735Z,23.42
2018-07-02T07:01:50.201Z,23.46
2018-07-02T07:04:18.231Z,23.48
2018-07-02T07:06:46.504Z,23.55
2018-07-02T07:09:14.575Z,23.45
2018-07-02T07:11:42.692Z,23.40
2018-07-02T07:14:10.837Z,23.42
2018-07-02T07:16:39.028Z,23.40
2018-07-02T07:19:07.060Z,23.25
2018-07-02T07:21:35.392Z,23.27
2018-07-02T07:24:03.416Z,23.23
2018-07-02T07:26:31.580Z,23.23
2018-07-02T07:28:59.835Z,23.28
2018-07-02T07:31:28.085Z,23.31
2018-07-02T07:33:56.115Z,23.38
2018-07-02T07:36:24.361Z,23.52
2018-07-02T07:38:52.443Z,23.75
2018-07-02T07:41:20.580Z,23.93
2018-07-02T07:43:49.025Z,23.96
2018-07-02T07:46:17.109Z,24.06
2018-07-02T07:48:45.363Z,24.09
2018-07-02T07:51:13.564Z,24.18
2018-07-02T07:53:41.627Z,24.17
2018-07-02T07:56:09.719Z,24.12
2018-07-02T07:58:37.934Z,24.20
2018-07-02T08:01:05.992Z,24.27
2018-07-02T08:03:34.438Z,24.30
2018-07-02T08:06:02.854Z,24.20
2018-07-02T08:08:31.035Z,24.22
2018-07-02T08:10:59.226Z,24.14
2018-07-02T08:13:27.475Z,24.04
2018-07-02T08:15:55.821Z,24.20
2018-07-02T08:18:23.868Z,24.50
2018-07-02T08:20:51.907Z,24.70
2018-07-02T08:23:20.062Z,24.81
2018-07-02T08:25:48.170Z,25.01
2018-07-02T08:28:16.252Z,25.26
2018-07-02T08:30:44.287Z,25.49
2018-07-02T08:33:12.370Z,25.59
2018-07-02T08:35:40.305Z,25.63
2018-07-02T08:38:08.431Z,25.67
2018-07-02T08:40:36.523Z,25.78
2018-07-02T08:43:04.543Z,25.93
2018-07-02T08:45:32.692Z,25.86
2018-07-02T08:48:00.678Z,25.74
2018-07-02T08:50:28.615Z,25.63
2018-07-02T08:52:56.767Z,25.57
2018-07-02T08:55:24.722Z,25.55
2018-07-02T08:57:52.696Z,25.43
2018-07-02T09:00:21.005Z,25.53
2018-07-02T09:02:48.989Z,25.61
2018-07-02T09:05:17.022Z,25.46
2018-07-02T09:07:45.006Z,25.48
2018-07-02T09:10:13.099Z,25.73
2018-07-02T09:12:41.087Z,25.86
2018-07-02T09:15:09.015Z,25.81
2018-07-02T09:17:37.222Z,26.01
2018-07-02T09:20:05.180Z,26.18
2018-07-02T09:22:33.274Z,26.59
2018-07-02T09:25:01.672Z,27.01
2018-07-02T09:27:29.681Z,27.35
2018-07-02T09:29:57.803Z,27.40
2018-07-02T09:32:25.891Z,27.42
2018-07-02T09:34:53.923Z,27.52
2018-07-02T09:37:21.987Z,27.54
2018-07-02T09:39:49.975Z,27.46
2018-07-02T09:42:18.642Z,26.99
2018-07-02T09:44:46.772Z,26.91
2018-07-02T09:47:14.782Z,27.12
2018-07-02T09:49:42.820Z,27.50
2018-07-02T09:52:10.913Z,27.49
2018-07-02T09:54:39.085Z,27.08
2018-07-02T09:57:07.087Z,26.79
2018-07-02T09:59:35.157Z,26.53
2018-07-02T10:02:03.289Z,26.44
2018-07-02T10:04:31.531Z,26.51
2018-07-02T10:06:59.581Z,26.55
2018-07-02T10:09:27.571Z,26.39
2018-07-02T10:11:55.653Z,26.10
2018-07-02T10:14:23.791Z,26.28
2018-07-02T10:16:51.864Z,26.58
2018-07-02T10:19:20.760Z,26.76
2018-07-02T10:21:48.774Z,26.95
2018-07-02T10:24:16.847Z,27.04
2018-07-02T10:26:44.773Z,27.15
2018-07-02T10:29:12.852Z,27.17
2018-07-02T10:31:41.094Z,27.20
2018-07-02T10:34:09.066Z,27.15
2018-07-02T10:36:37.164Z,27.25
2018-07-02T10:39:07.546Z,27.43
2018-07-02T10:41:35.866Z,27.32
2018-07-02T10:44:04.045Z,27.40
2018-07-02T10:46:32.110Z,27.21
2018-07-02T10:49:00.173Z,27.20
2018-07-02T10:51:28.326Z,27.36
2018-07-02T10:53:56.405Z,27.55
2018-07-02T10:56:24.806Z,27.52
2018-07-02T10:58:52.799Z,27.45
2018-07-02T11:01:20.874Z,27.62
2018-07-02T11:03:48.894Z,27.52
2018-07-02T11:06:16.950Z,27.47
2018-07-02T11:08:46.079Z,27.46
2018-07-02T11:11:14.280Z,27.56
2018-07-02T11:13:42.258Z,27.65
2018-07-02T11:16:10.340Z,27.70
2018-07-02T11:18:38.397Z,27.86
2018-07-02T11:21:06.384Z,27.60
2018-07-02T11:23:34.452Z,27.38
2018-07-02T11:26:02.501Z,27.38
2018-07-02T11:28:30.579Z,27.55
2018-07-02T11:30:58.602Z,27.76
2018-07-02T11:33:26.701Z,28.01
2018-07-02T11:35:54.830Z,28.05
2018-07-02T11:38:22.965Z,27.92
2018-07-02T11:40:50.986Z,27.93
2018-07-02T11:43:19.175Z,27.93
2018-07-02T11:45:47.279Z,28.00
2018-07-02T11:48:15.290Z,27.86
2018-07-02T11:50:43.484Z,27.84
2018-07-02T11:53:11.595Z,27.82
2018-07-02T11:55:39.563Z,27.73
2018-07-02T11:58:08.349Z,27.76
2018-07-02T12:00:36.466Z,27.71
2018-07-02T12:03:04.560Z,27.81
2018-07-02T12:05:32.599Z,27.97
2018-07-02T12:08:00.871Z,28.18
2018-07-02T12:10:28.908Z,28.45
2018-07-02T12:12:56.949Z,28.72
2018-07-02T12:15:25.116Z,28.95
2018-07-02T12:17:53.129Z,28.68
2018-07-02T12:20:21.178Z,28.42
2018-07-02T12:22:49.500Z,28.14
2018-07-02T12:25:17.518Z,28.29
2018-07-02T12:27:45.609Z,28.60
2018-07-02T12:30:13.642Z,28.87
2018-07-02T12:32:41.580Z,28.79
2018-07-02T12:35:10.179Z,28.88
2018-07-02T12:37:38.193Z,28.84
2018-07-02T12:40:06.239Z,28.62
2018-07-02T12:42:34.372Z,28.77
2018-07-02T12:45:02.501Z,28.88
2018-07-02T12:47:30.540Z,28.76
2018-07-02T12:49:58.460Z,28.61
2018-07-02T12:52:26.454Z,28.02
2018-07-02T12:54:54.447Z,28.19
2018-07-02T12:57:22.702Z,28.03
2018-07-02T12:59:50.974Z,28.53
2018-07-02T13:02:19.034Z,29.25
2018-07-02T13:04:47.105Z,29.14
2018-07-02T13:07:15.090Z,28.82
2018-07-02T13:09:43.149Z,28.47
2018-07-02T13:12:11.152Z,28.25
2018-07-02T13:14:39.377Z,28.28
2018-07-02T13:17:07.406Z,28.18
2018-07-02T13:19:35.483Z,28.89
2018-07-02T13:22:03.602Z,29.17
2018-07-02T13:24:31.628Z,30.08
2018-07-02T13:26:59.962Z,30.96
2018-07-02T13:29:27.874Z,31.34
2018-07-02T13:31:56.116Z,32.17
2018-07-02T13:34:24.259Z,32.17
2018-07-02T13:36:52.325Z,32.37
2018-07-02T13:39:20.469Z,32.55
2018-07-02T13:41:48.562Z,33.16
2018-07-02T13:44:16.791Z,33.62
2018-07-02T13:46:44.872Z,33.20
2018-07-02T13:49:12.925Z,33.32
2018-07-02T13:51:41.338Z,33.49
2018-07-02T13:54:09.668Z,33.48
2018-07-02T13:56:38.398Z,32.71
2018-07-02T13:59:10.166Z,32.92
2018-07-02T14:01:39.749Z,33.64
2018-07-02T14:04:08.974Z,33.22
2018-07-02T14:06:37.095Z,33.29
2018-07-02T14:09:08.561Z,33.33
2018-07-02T14:11:37.003Z,34.02
2018-07-02T14:14:05.019Z,34.52
2018-07-02T14:16:33.568Z,34.20
2018-07-02T14:19:01.714Z,33.08
2018-07-02T14:21:29.733Z,32.22
2018-07-02T14:23:57.910Z,31.83
2018-07-02T14:26:26.175Z,31.68
2018-07-02T14:28:54.139Z,31.02
2018-07-02T14:31:22.098Z,30.70
2018-07-02T14:33:50.109Z,29.98
2018-07-02T14:36:19.182Z,30.04
2018-07-02T14:38:47.576Z,30.44
2018-07-02T14:41:15.707Z,30.13
2018-07-02T14:43:43.770Z,29.80
2018-07-02T14:46:11.976Z,30.24
2018-07-02T14:48:39.998Z,31.13
2018-07-02T14:51:08.032Z,31.98
2018-07-02T14:53:36.226Z,32.34
2018-07-02T14:56:04.280Z,32.39
2018-07-02T14:58:33.433Z,32.91
2018-07-02T15:01:08.603Z,33.09
2018-07-02T15:03:36.876Z,32.34
2018-07-02T15:06:04.961Z,31.64
2018-07-02T15:08:32.978Z,31.14
2018-07-02T15:11:01.033Z,30.66
2018-07-02T15:13:29.039Z,30.33
2018-07-02T15:15:57.002Z,30.07
2018-07-02T15:18:25.124Z,29.94
2018-07-02T15:20:53.166Z,29.79
2018-07-02T15:23:21.486Z,29.73
2018-07-02T15:25:50.076Z,30.17
2018-07-02T15:28:18.028Z,31.15
2018-07-02T15:30:46.170Z,31.26
2018-07-02T15:33:14.606Z,31.55
2018-07-02T15:35:42.682Z,31.53
2018-07-02T15:38:10.658Z,30.97
2018-07-02T15:40:38.736Z,30.50
2018-07-02T15:43:06.802Z,30.86
2018-07-02T15:45:36.047Z,30.93
2018-07-02T15:48:04.124Z,30.23
2018-07-02T15:50:32.426Z,30.14
2018-07-02T15:53:00.635Z,30.42
2018-07-02T15:55:28.675Z,29.90
2018-07-02T15:57:56.953Z,29.59
2018-07-02T16:00:25.955Z,29.68
2018-07-02T16:02:54.611Z,30.01
2018-07-02T16:05:22.678Z,30.28
2018-07-02T16:07:51.361Z,30.72
2018-07-02T16:10:19.367Z,30.94
2018-07-02T16:12:47.920Z,31.15
2018-07-02T16:15:15.973Z,31.34
2018-07-02T16:17:44.311Z,31.26
2018-07-02T16:20:12.453Z,30.30
2018-07-02T16:22:40.703Z,29.68
2018-07-02T16:25:08.885Z,29.20
2018-07-02T16:27:36.852Z,28.58
2018-07-02T16:30:06.547Z,28.01
2018-07-02T16:32:34.587Z,27.71
2018-07-02T16:35:02.813Z,27.33
2018-07-02T16:37:31.226Z,27.01
2018-07-02T16:39:59.250Z,26.81
2018-07-02T16:42:27.347Z,26.74
2018-07-02T16:44:55.420Z,26.81
2018-07-02T16:47:23.476Z,26.77
2018-07-02T16:49:51.569Z,26.76
2018-07-02T16:52:20.427Z,26.59
2018-07-02T16:54:48.498Z,26.47
2018-07-02T16:57:18.363Z,26.10
2018-07-02T16:59:48.163Z,25.88
2018-07-02T17:02:16.539Z,25.46
2018-07-02T17:04:44.635Z,25.23
2018-07-02T17:07:13.322Z,25.05
2018-07-02T17:09:42.586Z,24.88
2018-07-02T17:12:11.641Z,24.72
2018-07-02T17:14:39.752Z,24.65
2018-07-02T17:17:07.986Z,24.69
2018-07-02T17:19:36.069Z,24.57
2018-07-02T17:22:04.842Z,24.45
2018-07-02T17:24:33.095Z,24.53
2018-07-02T17:27:01.128Z,24.49
2018-07-02T17:29:29.084Z,24.47
2018-07-02T17:31:57.129Z,24.41
2018-07-02T17:34:25.287Z,24.43
2018-07-02T17:36:53.357Z,24.45
2018-07-02T17:39:21.458Z,24.41
2018-07-02T17:41:49.554Z,24.32
2018-07-02T17:44:17.520Z,24.32
2018-07-02T17:46:46.583Z,24.25
2018-07-02T17:49:14.603Z,24.24
2018-07-02T17:51:42.858Z,24.17
2018-07-02T17:54:11.711Z,24.09
2018-07-02T17:56:39.988Z,24.03
2018-07-02T17:59:08.696Z,24.07
2018-07-02T18:01:36.780Z,24.09
2018-07-02T18:04:04.893Z,23.98
2018-07-02T18:06:32.859Z,24.01
2018-07-02T18:09:01.025Z,23.86
2018-07-02T18:11:29.289Z,23.87
2018-07-02T18:13:57.229Z,23.86
2018-07-02T18:16:25.293Z,23.88
2018-07-02T18:18:54.916Z,23.81
2018-07-02T18:21:22.919Z,23.69
2018-07-02T18:23:50.946Z,23.65
2018-07-02T18:26:19.268Z,23.57
2018-07-02T18:28:47.417Z,23.47
2018-07-02T18:31:15.555Z,23.39
2018-07-02T18:33:43.755Z,23.39
2018-07-02T18:36:11.832Z,23.27
2018-07-02T18:38:42.411Z,23.14
2018-07-02T18:41:12.581Z,23.09
2018-07-02T18:43:42.361Z,23.06
2018-07-02T18:46:10.451Z,22.96
2018-07-02T18:48:38.583Z,22.89
2018-07-02T18:51:06.850Z,22.85
2018-07-02T18:53:34.881Z,22.80
2018-07-02T18:56:02.864Z,22.78
2018-07-02T18:58:31.487Z,22.68
2018-07-02T19:00:59.712Z,22.71
2018-07-02T19:03:27.746Z,22.70
2018-07-02T19:05:55.839Z,22.65
2018-07-02T19:08:24.391Z,22.79
2018-07-02T19:10:52.804Z,22.90
2018-07-02T19:13:20.999Z,22.69
2018-07-02T19:15:49.070Z,22.58
2018-07-02T19:18:17.162Z,22.53
2018-07-02T19:20:45.500Z,22.48
2018-07-02T19:23:13.602Z,22.49
2018-07-02T19:25:41.591Z,22.39
2018-07-02T19:28:09.754Z,22.18
2018-07-02T19:30:38.120Z,22.09
2018-07-02T19:33:06.229Z,22.02
2018-07-02T19:35:34.240Z,22.03
2018-07-02T19:38:02.309Z,22.04
2018-07-02T19:40:30.357Z,22.13
2018-07-02T19:42:58.523Z,22.04
2018-07-02T19:45:26.566Z,22.05
2018-07-02T19:47:54.628Z,22.10
2018-07-02T19:50:22.614Z,22.04
2018-07-02T19:52:50.551Z,22.05
2018-07-02T19:55:18.619Z,22.03
2018-07-02T19:57:46.818Z,21.95
2018-07-02T20:00:14.907Z,21.92
2018-07-02T20:02:43.052Z,21.83
2018-07-02T20:05:11.141Z,21.88
2018-07-02T20:07:39.993Z,21.82
2018-07-02T20:10:08.121Z,21.72
2018-07-02T20:12:36.838Z,21.69
2018-07-02T20:15:05.267Z,21.68
2018-07-02T20:17:33.279Z,21.72
2018-07-02T20:20:01.405Z,21.74
2018-07-02T20:22:29.467Z,21.72
2018-07-02T20:24:57.789Z,21.73
2018-07-02T20:27:25.711Z,21.53
2018-07-02T20:29:53.781Z,21.57
2018-07-02T20:32:21.888Z,21.55
2018-07-02T20:34:49.933Z,21.51
2018-07-02T20:37:17.867Z,21.52
2018-07-02T20:39:45.919Z,21.49
2018-07-02T20:42:13.943Z,21.46
2018-07-02T20:44:42.038Z,21.38
2018-07-02T20:47:10.039Z,21.43
2018-07-02T20:49:37.953Z,21.34
2018-07-02T20:52:05.966Z,21.32
2018-07-02T20:54:34.116Z,21.21
2018-07-02T20:57:02.276Z,21.09
2018-07-02T20:59:30.347Z,21.11
2018-07-02T21:01:58.312Z,21.04
2018-07-02T21:04:26.391Z,21.03
2018-07-02T21:06:54.502Z,20.97
2018-07-02T21:09:22.710Z,20.88
2018-07-02T21:11:50.700Z,20.91
2018-07-02T21:14:18.612Z,20.95
2018-07-02T21:16:46.780Z,20.95
2018-07-02T21:19:14.799Z,20.84
2018-07-02T21:21:42.830Z,20.81
2018-07-02T21:24:11.678Z,20.80
2018-07-02T21:26:40.081Z,20.83
2018-07-02T21:29:08.039Z,20.73
2018-07-02T21:31:36.063Z,20.71
2018-07-02T21:34:04.165Z,20.63
2018-07-02T21:36:32.242Z,20.61
2018-07-02T21:39:00.276Z,20.52
2018-07-02T21:41:28.308Z,20.48
2018-07-02T21:43:56.609Z,20.41
2018-07-02T21:46:24.558Z,20.36
2018-07-02T21:48:52.590Z,20.38
2018-07-02T21:51:20.712Z,20.35
2018-07-02T21:53:48.779Z,20.36
2018-07-02T21:56:16.790Z,20.40
2018-07-02T21:58:48.046Z,20.40
2018-07-02T22:01:20.160Z,20.28
2018-07-02T22:03:48.445Z,20.28
2018-07-02T22:06:16.893Z,20.38
2018-07-02T22:08:45.095Z,20.34
2018-07-02T22:11:13.112Z,20.24
2018-07-02T22:13:41.132Z,20.19
2018-07-02T22:16:09.219Z,20.19
2018-07-02T22:18:37.304Z,20.19
2018-07-02T22:21:05.245Z,20.26
2018-07-02T22:23:33.611Z,20.26
2018-07-02T22:26:01.630Z,20.33
2018-07-02T22:28:29.756Z,20.36
2018-07-02T22:30:57.751Z,20.26
2018-07-02T22:33:25.969Z,20.23
2018-07-02T22:35:54.094Z,20.10
2018-07-02T22:38:22.190Z,20.10
2018-07-02T22:40:50.314Z,19.96
2018-07-02T22:43:18.309Z,20.07
2018-07-02T22:45:46.247Z,20.10
2018-07-02T22:48:15.322Z,20.06
2018-07-02T22:50:43.354Z,20.05
2018-07-02T22:53:11.397Z,19.94
2018-07-02T22:55:50.951Z,19.89
2018-07-02T22:58:21.178Z,19.80
2018-07-02T23:00:49.130Z,19.77
2018-07-02T23:03:17.226Z,19.81
2018-07-02T23:05:45.294Z,19.74
2018-07-02T23:08:14.068Z,19.74
2018-07-02T23:10:42.036Z,19.65
2018-07-02T23:13:10.007Z,19.64
2018-07-02T23:15:38.460Z,19.65
2018-07-02T23:18:12.011Z,19.63
2018-07-02T23:20:40.429Z,19.68
2018-07-02T23:23:08.438Z,19.53
2018-07-02T23:25:36.353Z,19.56
2018-07-02T23:28:04.376Z,19.56
2018-07-02T23:30:33.130Z,19.52
2018-07-02T23:33:01.165Z,19.58
2018-07-02T23:35:29.198Z,19.63
2018-07-02T23:37:57.338Z,19.54
2018-07-02T23:40:25.938Z,19.52
2018-07-02T23:42:54.799Z,19.52
2018-07-02T23:45:23.691Z,19.45
2018-07-02T23:47:51.784Z,19.37
2018-07-02T23:50:19.931Z,19.40
2018-07-02T23:52:47.955Z,19.43
2018-07-02T23:55:15.971Z,19.38
2018-07-02T23:57:44.063Z,19.37
